Main page
METAR-TAF:

METAR-TAF

Airports :

Bückeburg Air Base

Bückeburg, Germany

latitude: 52-17N, longitude: 009-05E, elevation: 70 m

Current weather observation

The report was made 17 minutes ago, at 10:20 UTC
Wind 10 kt from the West/Southwest
Temperature 8°C
Humidity 71%
Pressure 1022 hPa
Visibility 10 km or more
Few clouds at a height of 1500 ft
Broken clouds at a height of 10000 ft

METAR: ETHB 201020Z 25010KT 9999 FEW015 BKN100 08/03 Q1022 BLU BLU

Time: 11:37 (10:37 UTC)

Forecast

The report was made 2 hours and 35 minutes ago, at 08:02 UTC
Forecast valid from 20 at 09 UTC to 20 at 18 UTC
Wind 8 kt from the West/Southwest
Visibility 10 km or more
Scattered clouds at a height of 5000 ft
Broken clouds at a height of 10000 ft

TAF: ETHB 200802Z 2009/2018 24008KT 9999 NSW SCT050 BKN100

Weather observations and forecasts of more than 4000 airports (METAR and TAF reports).

The available stations are represented by yellow and red dots on the map.

Hover mouse over dot to see the name of the station.

Then click to see weather observations and forecasts.

To change the map : click on the green buttons with a black cross to zoom in, on the green button with a dash to zoom out, or on the green arrows for adjacent maps.


METAR-TAF: